createdAt,value
2018-12-11T00:02:22.324Z,55.93
2018-12-11T00:05:29.137Z,55.11
2018-12-11T00:08:33.870Z,55.17
2018-12-11T00:11:38.596Z,54.57
2018-12-11T00:14:43.326Z,54.67
2018-12-11T00:17:48.053Z,54.67
2018-12-11T00:20:52.800Z,54.30
2018-12-11T00:23:57.518Z,54.11
2018-12-11T00:27:02.241Z,54.56
2018-12-11T00:30:07.310Z,54.08
2018-12-11T00:33:12.193Z,54.22
2018-12-11T00:36:16.942Z,53.99
2018-12-11T00:39:21.657Z,54.07
2018-12-11T00:42:32.644Z,54.18
2018-12-11T00:45:37.365Z,53.93
2018-12-11T00:48:42.071Z,54.26
2018-12-11T00:51:46.793Z,54.51
2018-12-11T00:54:51.593Z,54.58
2018-12-11T00:57:56.314Z,54.63
2018-12-11T01:01:01.054Z,54.69
2018-12-11T01:04:07.822Z,54.69
2018-12-11T01:07:12.575Z,53.84
2018-12-11T01:10:17.347Z,53.85
2018-12-11T01:13:22.045Z,53.43
2018-12-11T01:16:26.770Z,53.69
2018-12-11T01:19:31.493Z,54.24
2018-12-11T01:22:36.197Z,53.76
2018-12-11T01:25:40.918Z,53.87
2018-12-11T01:28:45.655Z,53.49
2018-12-11T01:31:50.392Z,53.80
2018-12-11T01:34:55.117Z,52.94
2018-12-11T01:37:59.845Z,53.14
2018-12-11T01:41:04.644Z,53.04
2018-12-11T01:44:09.409Z,53.29
2018-12-11T01:47:14.146Z,52.82
2018-12-11T01:50:19.263Z,52.49
2018-12-11T01:53:24.004Z,52.45
2018-12-11T01:56:28.689Z,52.23
2018-12-11T01:59:33.384Z,51.80
2018-12-11T02:02:38.133Z,52.27
2018-12-11T02:05:43.013Z,52.19
2018-12-11T02:08:47.957Z,52.01
2018-12-11T02:11:52.697Z,52.39
2018-12-11T02:14:57.429Z,52.39
2018-12-11T02:18:02.162Z,52.50
2018-12-11T02:21:06.917Z,53.06
2018-12-11T02:24:11.638Z,52.59
2018-12-11T02:27:16.414Z,52.59
2018-12-11T02:30:21.104Z,52.23
2018-12-11T02:33:25.821Z,52.50
2018-12-11T02:36:30.568Z,52.74
2018-12-11T02:39:35.254Z,52.81
2018-12-11T02:42:40.006Z,52.13
2018-12-11T02:45:44.718Z,51.93
2018-12-11T02:48:49.456Z,52.40
2018-12-11T02:51:54.212Z,52.29
2018-12-11T02:54:58.929Z,52.15
2018-12-11T02:58:09.802Z,52.49
2018-12-11T03:01:14.581Z,52.21
2018-12-11T03:04:19.349Z,52.52
2018-12-11T03:07:24.046Z,52.80
2018-12-11T03:10:28.757Z,52.69
2018-12-11T03:13:33.469Z,52.74
2018-12-11T03:16:38.180Z,52.22
2018-12-11T03:19:42.929Z,52.21
2018-12-11T03:22:47.670Z,52.69
2018-12-11T03:25:52.399Z,52.34
2018-12-11T03:28:57.862Z,52.00
2018-12-11T03:32:02.612Z,51.44
2018-12-11T03:35:07.339Z,51.41
2018-12-11T03:38:12.057Z,51.13
2018-12-11T03:41:16.787Z,51.98
2018-12-11T03:44:21.620Z,51.25
2018-12-11T03:47:26.325Z,51.12
2018-12-11T03:50:31.083Z,51.19
2018-12-11T03:53:35.789Z,51.11
2018-12-11T03:56:40.503Z,50.94
2018-12-11T03:59:45.239Z,51.09
2018-12-11T04:02:49.954Z,51.08
2018-12-11T04:05:54.668Z,51.27
2018-12-11T04:08:59.415Z,50.74
2018-12-11T04:12:04.716Z,50.63
2018-12-11T04:15:09.604Z,50.73
2018-12-11T04:18:14.338Z,50.26
2018-12-11T04:21:19.050Z,50.58
2018-12-11T04:24:23.790Z,50.40
2018-12-11T04:27:30.694Z,50.34
2018-12-11T04:30:41.879Z,50.26
2018-12-11T04:33:46.612Z,49.77
2018-12-11T04:36:51.354Z,49.69
2018-12-11T04:39:56.089Z,50.03
2018-12-11T04:43:00.844Z,49.99
2018-12-11T04:46:05.593Z,50.34
2018-12-11T04:49:10.304Z,50.26
2018-12-11T04:52:15.053Z,50.02
2018-12-11T04:55:19.781Z,50.81
2018-12-11T04:58:24.528Z,50.72
2018-12-11T05:01:29.225Z,51.18
2018-12-11T05:04:33.973Z,50.71
2018-12-11T05:07:38.707Z,51.75
2018-12-11T05:10:43.635Z,51.52
2018-12-11T05:13:48.358Z,51.59
2018-12-11T05:16:53.197Z,51.37
2018-12-11T05:19:57.895Z,51.41
2018-12-11T05:23:02.593Z,52.11
2018-12-11T05:26:08.301Z,51.96
2018-12-11T05:29:13.181Z,51.49
2018-12-11T05:32:17.908Z,51.48
2018-12-11T05:35:22.612Z,51.42
2018-12-11T05:38:27.982Z,51.78
2018-12-11T05:41:32.720Z,51.83
2018-12-11T05:44:37.468Z,51.19
2018-12-11T05:47:42.207Z,50.92
2018-12-11T05:50:46.916Z,50.90
2018-12-11T05:53:51.781Z,50.49
2018-12-11T05:56:56.490Z,50.50
2018-12-11T06:00:01.208Z,50.62
2018-12-11T06:03:06.415Z,49.77
2018-12-11T06:06:11.118Z,50.33
2018-12-11T06:09:15.930Z,49.53
2018-12-11T06:12:20.636Z,49.38
2018-12-11T06:15:25.345Z,49.47
2018-12-11T06:18:30.076Z,48.08
2018-12-11T06:21:34.829Z,46.96
2018-12-11T06:24:39.555Z,47.10
2018-12-11T06:27:44.274Z,47.16
2018-12-11T06:30:48.962Z,47.18
2018-12-11T06:33:53.697Z,45.16
2018-12-11T06:36:58.420Z,44.93
2018-12-11T06:40:03.139Z,45.99
2018-12-11T06:43:07.889Z,46.00
2018-12-11T06:46:12.615Z,46.85
2018-12-11T06:49:17.386Z,47.07
2018-12-11T06:52:22.133Z,47.03
2018-12-11T06:55:26.843Z,47.21
2018-12-11T06:58:31.583Z,48.05
2018-12-11T07:01:36.299Z,48.25
2018-12-11T07:04:41.029Z,47.50
2018-12-11T07:07:45.738Z,47.77
2018-12-11T07:10:50.473Z,47.42
2018-12-11T07:13:56.362Z,46.97
2018-12-11T07:17:01.122Z,46.20
2018-12-11T07:20:07.101Z,45.07
2018-12-11T07:23:11.875Z,44.00
2018-12-11T07:26:16.641Z,43.20
2018-12-11T07:29:21.372Z,42.83
2018-12-11T07:32:26.135Z,41.91
2018-12-11T07:35:30.877Z,42.31
2018-12-11T07:38:35.603Z,41.47
2018-12-11T07:41:40.344Z,40.95
2018-12-11T07:44:45.072Z,40.79
2018-12-11T07:47:49.785Z,40.65
2018-12-11T07:50:54.537Z,39.97
2018-12-11T07:53:59.290Z,39.21
2018-12-11T07:57:04.001Z,39.24
2018-12-11T08:00:09.110Z,40.27
2018-12-11T08:03:13.866Z,41.75
2018-12-11T08:06:18.597Z,41.86
2018-12-11T08:09:23.357Z,43.19
2018-12-11T08:12:28.086Z,43.25
2018-12-11T08:15:32.796Z,42.44
2018-12-11T08:18:37.513Z,41.19
2018-12-11T08:21:42.281Z,40.47
2018-12-11T08:24:46.955Z,40.65
2018-12-11T08:27:51.646Z,39.69
2018-12-11T08:30:56.382Z,39.48
2018-12-11T08:34:01.114Z,39.24
2018-12-11T08:37:05.865Z,39.27
2018-12-11T08:40:10.600Z,39.47
2018-12-11T08:43:15.352Z,38.76
2018-12-11T08:46:20.099Z,38.51
2018-12-11T08:49:24.795Z,37.83
2018-12-11T08:52:29.537Z,37.27
2018-12-11T08:55:34.268Z,36.73
2018-12-11T08:58:38.984Z,37.49
2018-12-11T09:01:43.848Z,37.05
2018-12-11T09:04:48.578Z,37.86
2018-12-11T09:07:53.310Z,37.06
2018-12-11T09:10:58.036Z,37.06
2018-12-11T09:14:02.790Z,36.79
2018-12-11T09:17:10.467Z,37.32
2018-12-11T09:20:15.526Z,37.08
2018-12-11T09:23:20.307Z,36.55
2018-12-11T09:26:25.046Z,35.93
2018-12-11T09:29:29.958Z,35.91
2018-12-11T09:32:34.687Z,34.83
2018-12-11T09:35:39.528Z,34.67
2018-12-11T09:38:44.274Z,34.69
2018-12-11T09:41:48.994Z,34.63
2018-12-11T09:44:53.716Z,34.71
2018-12-11T09:47:58.473Z,33.94
2018-12-11T09:51:03.205Z,33.78
2018-12-11T09:54:07.960Z,33.77
2018-12-11T09:57:12.696Z,33.18
2018-12-11T10:00:19.285Z,33.03
2018-12-11T10:03:24.177Z,33.28
2018-12-11T10:06:28.932Z,33.51
2018-12-11T10:09:33.751Z,33.71
2018-12-11T10:12:38.492Z,32.79
2018-12-11T10:15:43.213Z,33.04
2018-12-11T10:18:47.952Z,32.88
2018-12-11T10:21:52.784Z,32.63
2018-12-11T10:24:57.539Z,32.60
2018-12-11T10:28:02.258Z,31.74
2018-12-11T10:31:07.033Z,32.03
2018-12-11T10:34:11.801Z,31.61
2018-12-11T10:37:16.534Z,31.72
2018-12-11T10:40:21.281Z,31.87
2018-12-11T10:43:26.032Z,31.91
2018-12-11T10:46:33.715Z,31.65
2018-12-11T10:49:37.678Z,31.10
2018-12-11T10:52:42.461Z,31.71
2018-12-11T10:55:47.187Z,31.34
2018-12-11T10:58:51.930Z,31.34
2018-12-11T11:01:58.889Z,31.01
2018-12-11T11:05:03.709Z,30.76
2018-12-11T11:08:08.423Z,30.65
2018-12-11T11:11:13.165Z,30.45
2018-12-11T11:14:17.982Z,30.93
2018-12-11T11:17:22.797Z,30.76
2018-12-11T11:20:27.611Z,30.43
2018-12-11T11:23:32.319Z,30.17
2018-12-11T11:26:37.053Z,30.77
2018-12-11T11:29:41.777Z,30.28
2018-12-11T11:32:46.496Z,30.53
2018-12-11T11:35:51.221Z,29.48
2018-12-11T11:38:55.918Z,29.87
2018-12-11T11:42:00.651Z,29.95
2018-12-11T11:45:06.977Z,29.82
2018-12-11T11:48:12.984Z,30.01
2018-12-11T11:51:17.696Z,30.24
2018-12-11T11:54:22.477Z,30.65
2018-12-11T11:57:29.858Z,30.39
2018-12-11T12:00:33.990Z,29.13
2018-12-11T12:03:38.784Z,30.01
2018-12-11T12:06:43.541Z,29.40
2018-12-11T12:09:48.296Z,28.91
2018-12-11T12:12:59.514Z,28.99
2018-12-11T12:16:04.254Z,29.56
2018-12-11T12:19:08.985Z,28.90
2018-12-11T12:22:15.078Z,28.79
2018-12-11T12:25:19.819Z,29.05
2018-12-11T12:28:24.559Z,28.71
2018-12-11T12:31:29.814Z,29.11
2018-12-11T12:34:34.582Z,29.26
2018-12-11T12:37:39.305Z,29.04
2018-12-11T12:40:44.026Z,28.99
2018-12-11T12:43:48.881Z,29.40
2018-12-11T12:46:53.605Z,29.86
2018-12-11T12:49:58.379Z,29.60
2018-12-11T12:53:04.066Z,30.24
2018-12-11T12:56:08.859Z,29.73
2018-12-11T12:59:13.633Z,29.46
2018-12-11T13:02:18.356Z,29.47
2018-12-11T13:05:23.921Z,29.58
2018-12-11T13:08:28.958Z,30.02
2018-12-11T13:11:33.743Z,30.08
2018-12-11T13:14:38.591Z,30.16
2018-12-11T13:17:43.376Z,29.95
2018-12-11T13:20:48.206Z,30.66
2018-12-11T13:23:53.021Z,30.68
2018-12-11T13:26:57.808Z,31.56
2018-12-11T13:30:02.614Z,31.16
2018-12-11T13:33:07.584Z,31.20
2018-12-11T13:36:12.361Z,31.55
2018-12-11T13:39:17.073Z,31.58
2018-12-11T13:42:21.808Z,31.53
2018-12-11T13:45:26.563Z,32.27
2018-12-11T13:48:31.298Z,32.56
2018-12-11T13:51:36.041Z,33.14
2018-12-11T13:54:40.762Z,33.60
2018-12-11T13:57:45.486Z,34.13
2018-12-11T14:00:50.299Z,34.78
2018-12-11T14:03:55.034Z,35.73
2018-12-11T14:06:59.760Z,35.89
2018-12-11T14:10:05.085Z,37.31
2018-12-11T14:13:10.055Z,36.85
2018-12-11T14:16:14.871Z,37.09
2018-12-11T14:19:19.656Z,36.61
2018-12-11T14:22:24.382Z,36.91
2018-12-11T14:25:29.085Z,36.85
2018-12-11T14:28:34.004Z,36.68
2018-12-11T14:31:38.774Z,36.47
2018-12-11T14:34:43.506Z,36.74
2018-12-11T14:37:48.365Z,36.79
2018-12-11T14:40:53.092Z,37.37
2018-12-11T14:43:57.886Z,38.07
2018-12-11T14:47:02.689Z,38.14
2018-12-11T14:50:09.228Z,38.49
2018-12-11T14:53:13.964Z,38.98
2018-12-11T14:56:18.691Z,38.93
2018-12-11T14:59:23.421Z,39.66
2018-12-11T15:02:29.501Z,39.12
2018-12-11T15:05:34.477Z,39.71
2018-12-11T15:08:39.216Z,39.42
2018-12-11T15:11:44.033Z,39.66
2018-12-11T15:14:48.801Z,39.60
2018-12-11T15:17:53.597Z,40.27
2018-12-11T15:20:58.373Z,40.26
2018-12-11T15:24:03.095Z,39.48
2018-12-11T15:27:07.869Z,40.18
2018-12-11T15:30:12.613Z,40.06
2018-12-11T15:33:17.520Z,39.94
2018-12-11T15:36:22.253Z,40.32
2018-12-11T15:39:26.969Z,40.26
2018-12-11T15:42:31.685Z,39.65
2018-12-11T15:45:36.402Z,39.76
2018-12-11T15:48:41.173Z,40.07
2018-12-11T15:51:45.881Z,40.30
2018-12-11T15:54:50.610Z,39.94
2018-12-11T15:57:55.308Z,39.88
2018-12-11T16:01:00.047Z,40.35
2018-12-11T16:04:04.844Z,40.42
2018-12-11T16:07:09.592Z,40.92
2018-12-11T16:10:14.476Z,40.69
2018-12-11T16:13:19.306Z,40.68
2018-12-11T16:16:24.016Z,41.18
2018-12-11T16:19:28.825Z,41.04
2018-12-11T16:22:33.583Z,41.63
2018-12-11T16:25:38.315Z,41.43
2018-12-11T16:28:43.046Z,41.45
2018-12-11T16:31:47.812Z,41.34
2018-12-11T16:34:52.885Z,41.22
2018-12-11T16:37:57.771Z,41.53
2018-12-11T16:41:02.535Z,41.75
2018-12-11T16:44:07.293Z,42.17
2018-12-11T16:47:12.058Z,42.10
2018-12-11T16:50:16.808Z,42.45
2018-12-11T16:53:21.690Z,41.35
2018-12-11T16:56:27.088Z,41.66
2018-12-11T16:59:31.970Z,41.88
2018-12-11T17:02:36.690Z,42.35
2018-12-11T17:05:41.427Z,41.87
2018-12-11T17:08:46.160Z,42.56
2018-12-11T17:11:50.929Z,42.40
2018-12-11T17:14:56.527Z,42.45
2018-12-11T17:18:01.350Z,42.48
2018-12-11T17:21:06.472Z,42.22
2018-12-11T17:24:11.224Z,42.72
2018-12-11T17:27:15.977Z,42.29
2018-12-11T17:30:20.699Z,42.30
2018-12-11T17:33:25.422Z,42.12
2018-12-11T17:36:30.166Z,42.03
2018-12-11T17:39:34.925Z,42.17
2018-12-11T17:42:39.742Z,42.58
2018-12-11T17:45:45.623Z,42.11
2018-12-11T17:48:50.516Z,42.59
2018-12-11T17:51:55.249Z,42.27
2018-12-11T17:55:00.138Z,42.82
2018-12-11T17:58:05.005Z,42.53
2018-12-11T18:01:10.057Z,42.55
2018-12-11T18:04:14.963Z,42.53
2018-12-11T18:07:19.704Z,42.52
2018-12-11T18:10:24.510Z,42.26
2018-12-11T18:13:29.521Z,41.94
2018-12-11T18:16:34.282Z,41.78
2018-12-11T18:19:39.075Z,42.56
2018-12-11T18:22:43.816Z,42.92
2018-12-11T18:25:48.557Z,42.94
2018-12-11T18:28:53.813Z,43.44
2018-12-11T18:31:59.439Z,43.23
2018-12-11T18:35:04.965Z,43.90
2018-12-11T18:38:09.849Z,44.34
2018-12-11T18:41:14.774Z,44.75
2018-12-11T18:44:19.605Z,44.97
2018-12-11T18:47:25.839Z,44.77
2018-12-11T18:50:30.884Z,45.05
2018-12-11T18:53:35.744Z,45.05
2018-12-11T18:56:40.485Z,45.00
2018-12-11T18:59:45.230Z,44.60
2018-12-11T19:02:49.983Z,44.43
2018-12-11T19:05:54.809Z,44.38
2018-12-11T19:09:05.602Z,43.74
2018-12-11T19:12:08.608Z,43.86
2018-12-11T19:15:13.784Z,44.02
2018-12-11T19:18:18.606Z,43.85
2018-12-11T19:21:23.389Z,43.82
2018-12-11T19:24:47.067Z,43.51
2018-12-11T19:27:51.974Z,43.36
2018-12-11T19:30:57.449Z,43.48
2018-12-11T19:34:03.602Z,43.54
2018-12-11T19:37:09.120Z,43.23
2018-12-11T19:40:15.398Z,43.18
2018-12-11T19:43:20.145Z,43.60
2018-12-11T19:46:25.033Z,42.99
2018-12-11T19:49:29.784Z,43.11
2018-12-11T19:52:39.714Z,43.59
2018-12-11T19:55:42.271Z,43.42
2018-12-11T19:58:47.256Z,43.27
2018-12-11T20:01:52.010Z,43.50
2018-12-11T20:04:56.750Z,43.53
2018-12-11T20:08:01.518Z,43.56
2018-12-11T20:11:06.317Z,44.01
2018-12-11T20:14:11.269Z,43.91
2018-12-11T20:17:16.063Z,43.48
2018-12-11T20:20:25.818Z,43.58
2018-12-11T20:23:30.760Z,43.78
2018-12-11T20:26:39.266Z,43.71
2018-12-11T20:29:42.302Z,44.06
2018-12-11T20:32:47.050Z,43.99
2018-12-11T20:35:51.769Z,43.71
2018-12-11T20:38:56.529Z,44.61
2018-12-11T20:42:01.253Z,44.59
2018-12-11T20:45:06.853Z,44.33
2018-12-11T20:48:11.740Z,43.80
2018-12-11T20:51:16.523Z,44.19
2018-12-11T20:54:21.246Z,44.22
2018-12-11T20:57:25.996Z,44.13
2018-12-11T21:00:34.122Z,44.32
2018-12-11T21:03:39.011Z,44.20
2018-12-11T21:06:43.721Z,44.82
2018-12-11T21:09:48.451Z,45.23
2018-12-11T21:12:53.201Z,45.42
2018-12-11T21:15:57.930Z,45.09
2018-12-11T21:19:02.870Z,44.92
2018-12-11T21:22:07.606Z,44.53
2018-12-11T21:25:12.326Z,45.00
2018-12-11T21:28:17.235Z,44.91
2018-12-11T21:31:21.997Z,45.17
2018-12-11T21:34:26.725Z,44.71
2018-12-11T21:37:31.455Z,44.81
2018-12-11T21:40:36.386Z,45.08
2018-12-11T21:43:41.096Z,44.73
2018-12-11T21:46:45.807Z,44.62
2018-12-11T21:49:50.564Z,44.47
2018-12-11T21:52:55.307Z,44.50
2018-12-11T21:56:00.064Z,44.46
2018-12-11T21:59:04.854Z,44.85
2018-12-11T22:02:09.592Z,44.82
2018-12-11T22:05:14.350Z,45.33
2018-12-11T22:08:19.115Z,44.57
2018-12-11T22:11:24.092Z,44.89
2018-12-11T22:14:28.838Z,45.34
2018-12-11T22:17:33.650Z,45.23
2018-12-11T22:20:38.381Z,45.00
2018-12-11T22:23:43.125Z,45.15
2018-12-11T22:26:47.839Z,45.73
2018-12-11T22:29:52.594Z,45.54
2018-12-11T22:32:57.309Z,45.86
2018-12-11T22:36:02.046Z,46.23
2018-12-11T22:39:08.660Z,46.15
2018-12-11T22:42:13.855Z,46.53
2018-12-11T22:45:18.563Z,46.44
2018-12-11T22:48:23.559Z,46.48
2018-12-11T22:51:28.773Z,47.18
2018-12-11T22:54:33.682Z,47.49
2018-12-11T22:57:38.407Z,46.84
2018-12-11T23:00:45.744Z,47.40
2018-12-11T23:03:52.554Z,46.83
2018-12-11T23:06:57.348Z,46.96
2018-12-11T23:10:02.462Z,46.50
2018-12-11T23:13:07.415Z,46.09
2018-12-11T23:16:12.166Z,46.37
2018-12-11T23:19:16.862Z,46.27
2018-12-11T23:22:21.941Z,46.28
2018-12-11T23:25:26.677Z,45.83
2018-12-11T23:28:31.441Z,46.85
2018-12-11T23:31:36.145Z,46.41
2018-12-11T23:34:40.865Z,46.34
2018-12-11T23:37:45.617Z,46.54
2018-12-11T23:40:50.340Z,45.74
2018-12-11T23:43:55.094Z,46.17
2018-12-11T23:46:59.822Z,45.80
2018-12-11T23:50:04.765Z,45.63
2018-12-11T23:53:09.484Z,46.05
2018-12-11T23:56:14.173Z,45.73
2018-12-11T23:59:18.885Z,44.97
